Aeroporto :
LOGIN :

Iscrizione | Disclaimer

   EN    FR    IT 

 










Sommario :    VFR   VFR Marginale   IFR   IFR Intensivo   IFR Molto Intensivo
Visibilità : 
Base nubi : 
>= 8 km
>= 3000ft
5 / 8 km
1000 / 3000 ft
1500m / 5 km
500 / 1000 ft
800 / 1500m
200 / 500 ft
< 800m
< 200 ft
Simboli :   Temporali  Nebbia  Neve Forte  Precipitazioni Forti  Vento > 20 kt
SIGMETs :   Varie  Temporali  Ghiacco  Turbolenza  Onda orograficha  Ceneri Vulcaniche






- Altitudine del aeroporto : 272 ft
- Codice IATA : MXN


LFRU - Morlaix-Ploujean

ULTIMO METAR :
  • 191530Z AUTO 16006KT 130V200 9999 FEW040 BKN210 10/07 Q1012

METARs OBSOLETI :
  • 191500Z AUTO 16007KT 120V190 CAVOK 11/07 Q1012
  • 191430Z AUTO 16006KT 120V190 CAVOK 11/07 Q1012
  • 191400Z AUTO 16008KT 130V200 CAVOK 11/07 Q1013
  • 191330Z AUTO 16008KT 130V190 CAVOK 11/07 Q1013
  • 191300Z AUTO 16008KT 130V190 CAVOK 10/07 Q1013

TAF N/A



MetMap, La meteo Aeronautica in un colpo d'occhio ! - Copyright ORBIFLY Dicembre 2007 - Disclaimer

ORBIFLY MET'MAP TEAM :

Programmazione e sviluppo : Alexandra Zaïnal
Concezione e sviluppo : Baudouin d'Aumeries
Co-Programmazione e sviluppo : Marc-Olivier Méhu
Supporto tecnico e logistico : Manuel Goepfert
Aiuto per la traduzione : Arnaldo La Scala

Contatto : metmap@orbifly.com




FONTI E CREDITI :

   NOAA